Saturday, November 18, 2017, 12:10 PM GMT
Back to Local

CYYY, Mont Joli, Que.

Location: , , Canada Lat: 48.6
Local Time: 12:10 PM GMT (12:10 GMT) Lon: -68.217
Time Zone: GMT Elev: 157 ft

Show me the last for .
Show Coded

Time T Td Feel RH Dir Speed Gust Alt SLP Vis Weather Sky Remarks
2017-11-18 11:00 21 16 8 79 290° 14 - 29.83 29.85 15 BKN025 None
2017-11-18 10:00 23 16 8 73 280° 15 22 29.83 29.85 15 OVC020 None
2017-11-18 09:00 21 14 4 73 300° 18 25 29.82 29.83 15 OVC022 None
2017-11-18 08:00 21 16 5 79 280° 15 23 29.82 29.84 15 OVC020 None
2017-11-18 07:00 23 16 10 73 300° 16 - 29.81 29.83 15 OVC024 None
2017-11-18 06:00 23 16 10 73 290° 16 - 29.80 29.81 15 OVC023 None
2017-11-18 05:00 23 16 9 73 320° 18 - 29.80 29.81 15 OVC025 None
2017-11-18 04:00 25 18 8 73 310° 20 28 29.79 29.80 15 OVC025 None
2017-11-18 03:00 25 16 8 68 310° 22 28 29.78 29.79 15 OVC026 None
2017-11-18 02:00 25 18 9 73 290° 21 26 29.78 29.79 15 OVC024 None
2017-11-18 01:27 27 19 12 73 290° 18 24 29.77 29.78 15 OVC023 None
2017-11-18 01:00 27 19 11 73 320° 17 25 29.75 29.77 15 -SN OVC023 None
2017-11-18 00:00 28 21 14 74 300° 17 25 29.73 29.75 15 -SN OVC022 None
2017-11-17 23:00 28 23 14 79 320° 26 - 29.72 29.73 15 -SN OVC020 None
2017-11-17 22:00 28 25 11 86 320° 29 37 29.69 29.70 3 -SN OVC028 None
2017-11-17 21:32 30 25 14 80 320° 30 37 29.67 29.68 3 -SN OVC020 None
2017-11-17 21:00 30 27 14 86 320° 31 38 29.66 29.67 2 -SN OVC014 None
2017-11-17 20:00 32 28 17 86 320° 28 35 29.64 29.65 2 -SN BKN013 OVC020 None
2017-11-17 19:29 32 30 17 92 320° 24 33 29.63 29.64 2 -SN OVC012 None
2017-11-17 19:21 32 30 17 92 320° 23 33 29.63 29.64 1 -SN OVC012 None
2017-11-17 19:06 32 30 17 92 320° 26 33 29.62 29.64 1 -SN OVC011 None
2017-11-17 19:02 32 30 17 92 320° 25 33 29.62 29.63 1 -SN OVC011 None
2017-11-17 19:00 32 30 17 92 320° 25 31 29.62 29.63 2 -SN OVC012 None
2017-11-17 18:51 32 30 17 92 320° 25 33 29.62 29.63 2 -SN OVC012 None
2017-11-17 18:47 32 30 17 92 320° 26 33 29.62 29.63 3 -SN OVC012 None
2017-11-17 18:00 34 32 22 93 330° 20 - 29.62 29.63 5 -SN OVC014 None
2017-11-17 17:53 34 32 21 93 330° 20 26 29.62 29.63 3 -SN OVC011 None
2017-11-17 17:18 34 32 22 93 330° 16 23 29.62 29.63 2 -SN OVC010 None
2017-11-17 17:00 34 32 22 93 330° 22 - 29.62 29.63 1 -SN OVC008 None
2017-11-17 16:55 34 32 21 93 330° 18 26 29.62 29.63 1 -SN OVC008 None
2017-11-17 16:00 34 32 22 93 330° 20 - 29.62 29.64 2 -SN OVC008 None
2017-11-17 15:46 34 34 22 100 330° 20 - 29.63 29.64 2 -SN OVC008 None
2017-11-17 15:06 34 32 23 93 330° 18 - 29.64 29.65 2 -SN OVC006 None
2017-11-17 15:00 34 34 23 100 330° 18 - 29.64 29.65 1 -SN OVC006 None
2017-11-17 14:00 34 32 22 93 330° 15 21 29.64 29.65 1 -SN OVC005 None
2017-11-17 13:00 34 32 24 93 330° 16 - 29.65 29.66 1 -SN OVC006 None
2017-11-17 12:28 34 34 24 100 330° 14 - 29.64 29.66 1 -SN OVC007 None

Support USWX by starting your Amazon purchase here.